sensor_id;sensor_type;location;lat;lon;timestamp;pressure;altitude;pressure_sealevel;temperature;humidity
68654;BME280;55636;51.108;13.622;2023-03-31T00:00:10;99529.94;;;10.84;56.26
68654;BME280;55636;51.108;13.622;2023-03-31T00:01:13;99524.41;;;10.84;56.30
68654;BME280;55636;51.108;13.622;2023-03-31T00:02:15;99519.97;;;10.83;56.25
68654;BME280;55636;51.108;13.622;2023-03-31T00:03:18;99523.03;;;10.82;56.17
68654;BME280;55636;51.108;13.622;2023-03-31T00:04:27;99529.38;;;10.82;56.11
68654;BME280;55636;51.108;13.622;2023-03-31T00:05:29;99522.75;;;10.83;56.21
68654;BME280;55636;51.108;13.622;2023-03-31T00:06:36;99523.56;;;10.84;56.28
68654;BME280;55636;51.108;13.622;2023-03-31T00:07:43;99531.03;;;10.83;56.18
68654;BME280;55636;51.108;13.622;2023-03-31T00:08:47;99520.78;;;10.84;56.16
68654;BME280;55636;51.108;13.622;2023-03-31T00:09:53;99521.66;;;10.84;56.16
68654;BME280;55636;51.108;13.622;2023-03-31T00:11:11;99525.22;;;10.85;56.18
68654;BME280;55636;51.108;13.622;2023-03-31T00:12:14;99516.94;;;10.85;56.10
68654;BME280;55636;51.108;13.622;2023-03-31T00:13:17;99528.81;;;10.85;56.07
68654;BME280;55636;51.108;13.622;2023-03-31T00:14:20;99516.13;;;10.84;56.22
68654;BME280;55636;51.108;13.622;2023-03-31T00:15:22;99529.09;;;10.84;56.04
68654;BME280;55636;51.108;13.622;2023-03-31T00:16:25;99527.16;;;10.84;56.01
68654;BME280;55636;51.108;13.622;2023-03-31T00:17:27;99519.69;;;10.85;56.21
68654;BME280;55636;51.108;13.622;2023-03-31T00:18:30;99518.59;;;10.86;56.24
68654;BME280;55636;51.108;13.622;2023-03-31T00:19:32;99516.94;;;10.85;56.27
68654;BME280;55636;51.108;13.622;2023-03-31T00:20:35;99509.50;;;10.85;55.99
68654;BME280;55636;51.108;13.622;2023-03-31T00:21:39;99511.41;;;10.85;56.21
68654;BME280;55636;51.108;13.622;2023-03-31T00:22:43;99512.25;;;10.85;56.20
68654;BME280;55636;51.108;13.622;2023-03-31T00:23:53;99510.31;;;10.86;56.07
68654;BME280;55636;51.108;13.622;2023-03-31T00:24:55;99503.97;;;10.85;56.18
68654;BME280;55636;51.108;13.622;2023-03-31T00:25:58;99517.78;;;10.85;56.04
68654;BME280;55636;51.108;13.622;2023-03-31T00:27:02;99506.72;;;10.85;56.19
68654;BME280;55636;51.108;13.622;2023-03-31T00:28:04;99504.78;;;10.86;56.14
68654;BME280;55636;51.108;13.622;2023-03-31T00:29:10;99507.25;;;10.88;56.11
68654;BME280;55636;51.108;13.622;2023-03-31T00:30:13;99501.72;;;10.88;56.16
68654;BME280;55636;51.108;13.622;2023-03-31T00:31:17;99500.06;;;10.86;56.03
68654;BME280;55636;51.108;13.622;2023-03-31T00:32:22;99498.16;;;10.87;55.91
68654;BME280;55636;51.108;13.622;2023-03-31T00:33:26;99505.59;;;10.86;56.17
68654;BME280;55636;51.108;13.622;2023-03-31T00:34:28;99497.31;;;10.86;56.02
68654;BME280;55636;51.108;13.622;2023-03-31T00:35:34;99503.66;;;10.87;56.09
68654;BME280;55636;51.108;13.622;2023-03-31T00:36:40;99504.50;;;10.88;56.05
68654;BME280;55636;51.108;13.622;2023-03-31T00:37:47;99498.97;;;10.88;55.90
68654;BME280;55636;51.108;13.622;2023-03-31T00:38:49;99504.50;;;10.88;56.00
68654;BME280;55636;51.108;13.622;2023-03-31T00:39:53;99496.19;;;10.88;55.98
68654;BME280;55636;51.108;13.622;2023-03-31T00:40:57;99494.28;;;10.88;56.00
68654;BME280;55636;51.108;13.622;2023-03-31T00:42:03;99493.44;;;10.88;55.99
68654;BME280;55636;51.108;13.622;2023-03-31T00:43:37;99489.56;;;10.89;56.12
68654;BME280;55636;51.108;13.622;2023-03-31T00:46:26;99489.56;;;10.89;55.84
68654;BME280;55636;51.108;13.622;2023-03-31T00:47:32;99492.03;;;10.90;56.09
68654;BME280;55636;51.108;13.622;2023-03-31T00:48:36;99489.28;;;10.90;55.90
68654;BME280;55636;51.108;13.622;2023-03-31T00:49:43;99481.28;;;10.89;55.84
68654;BME280;55636;51.108;13.622;2023-03-31T00:50:50;99488.75;;;10.88;56.00
68654;BME280;55636;51.108;13.622;2023-03-31T00:52:00;99484.84;;;10.89;56.12
68654;BME280;55636;51.108;13.622;2023-03-31T00:53:11;99484.03;;;10.89;56.03
68654;BME280;55636;51.108;13.622;2023-03-31T00:54:17;99481.84;;;10.91;55.90
68654;BME280;55636;51.108;13.622;2023-03-31T00:55:27;99481.00;;;10.90;55.89
68654;BME280;55636;51.108;13.622;2023-03-31T00:56:36;99479.06;;;10.91;56.17
68654;BME280;55636;51.108;13.622;2023-03-31T00:57:40;99476.56;;;10.89;55.93
68654;BME280;55636;51.108;13.622;2023-03-31T00:58:45;99476.31;;;10.91;56.03
68654;BME280;55636;51.108;13.622;2023-03-31T00:59:50;99465.25;;;10.91;56.01
68654;BME280;55636;51.108;13.622;2023-03-31T01:00:56;99473.56;;;10.91;55.95
68654;BME280;55636;51.108;13.622;2023-03-31T01:01:59;99470.78;;;10.91;55.99
68654;BME280;55636;51.108;13.622;2023-03-31T01:03:05;99468.84;;;10.91;55.89
68654;BME280;55636;51.108;13.622;2023-03-31T01:04:12;99465.25;;;10.91;56.12
68654;BME280;55636;51.108;13.622;2023-03-31T01:05:17;99466.38;;;10.90;55.89
68654;BME280;55636;51.108;13.622;2023-03-31T01:06:22;99465.25;;;10.91;56.01
68654;BME280;55636;51.108;13.622;2023-03-31T01:07:31;99470.78;;;10.91;55.89
68654;BME280;55636;51.108;13.622;2023-03-31T01:08:40;99455.84;;;10.92;55.98
68654;BME280;55636;51.108;13.622;2023-03-31T01:09:45;99455.84;;;10.92;56.00
68654;BME280;55636;51.108;13.622;2023-03-31T01:11:02;99447.53;;;10.92;55.95
68654;BME280;55636;51.108;13.622;2023-03-31T01:12:09;99456.69;;;10.92;55.93
68654;BME280;55636;51.108;13.622;2023-03-31T01:13:12;99447.53;;;10.92;55.96
68654;BME280;55636;51.108;13.622;2023-03-31T01:14:16;99449.19;;;10.93;55.81
68654;BME280;55636;51.108;13.622;2023-03-31T01:15:19;99449.19;;;10.93;55.91
68654;BME280;55636;51.108;13.622;2023-03-31T01:16:21;99446.44;;;10.93;55.89
68654;BME280;55636;51.108;13.622;2023-03-31T01:17:24;99439.00;;;10.93;55.91
68654;BME280;55636;51.108;13.622;2023-03-31T01:18:30;99440.09;;;10.92;55.92
68654;BME280;55636;51.108;13.622;2023-03-31T01:21:32;99438.16;;;10.93;55.84
68654;BME280;55636;51.108;13.622;2023-03-31T01:25:47;99425.19;;;10.93;55.78
68654;BME280;55636;51.108;13.622;2023-03-31T01:36:38;99416.03;;;10.93;55.66
68654;BME280;55636;51.108;13.622;2023-03-31T01:42:51;99397.81;;;10.92;55.65
68654;BME280;55636;51.108;13.622;2023-03-31T01:45:23;99407.25;;;10.91;55.82
68654;BME280;55636;51.108;13.622;2023-03-31T01:46:31;99411.91;;;10.90;55.68
68654;BME280;55636;51.108;13.622;2023-03-31T01:47:45;99411.09;;;10.90;55.74
68654;BME280;55636;51.108;13.622;2023-03-31T01:50:05;99405.88;;;10.88;55.90
68654;BME280;55636;51.108;13.622;2023-03-31T01:51:18;99415.25;;;10.87;55.69
68654;BME280;55636;51.108;13.622;2023-03-31T01:53:35;99404.50;;;10.85;55.71
68654;BME280;55636;51.108;13.622;2023-03-31T01:56:38;99400.09;;;10.84;55.75
68654;BME280;55636;51.108;13.622;2023-03-31T01:57:50;99399.25;;;10.84;55.66
68654;BME280;55636;51.108;13.622;2023-03-31T01:59:04;99395.66;;;10.83;55.78
68654;BME280;55636;51.108;13.622;2023-03-31T02:00:12;99392.91;;;10.83;55.83
68654;BME280;55636;51.108;13.622;2023-03-31T02:01:27;99388.47;;;10.82;55.85
68654;BME280;55636;51.108;13.622;2023-03-31T02:02:38;99389.59;;;10.81;55.76
68654;BME280;55636;51.108;13.622;2023-03-31T02:03:48;99384.06;;;10.81;55.79
68654;BME280;55636;51.108;13.622;2023-03-31T02:05:01;99379.66;;;10.80;55.79
68654;BME280;55636;51.108;13.622;2023-03-31T02:06:11;99381.59;;;10.80;55.65
68654;BME280;55636;51.108;13.622;2023-03-31T02:07:27;99381.59;;;10.80;55.72
68654;BME280;55636;51.108;13.622;2023-03-31T02:08:38;99379.97;;;10.79;55.80
68654;BME280;55636;51.108;13.622;2023-03-31T02:09:45;99368.06;;;10.78;55.92
68654;BME280;55636;51.108;13.622;2023-03-31T02:10:52;99373.59;;;10.78;55.76
68654;BME280;55636;51.108;13.622;2023-03-31T02:11:57;99368.06;;;10.78;55.67
68654;BME280;55636;51.108;13.622;2023-03-31T02:13:02;99363.13;;;10.75;55.75
68654;BME280;55636;51.108;13.622;2023-03-31T02:14:09;99363.94;;;10.76;55.88
68654;BME280;55636;51.108;13.622;2023-03-31T02:15:18;99359.53;;;10.75;55.74
68654;BME280;55636;51.108;13.622;2023-03-31T02:16:25;99365.03;;;10.75;55.95
68654;BME280;55636;51.108;13.622;2023-03-31T02:17:29;99360.66;;;10.74;55.86
68654;BME280;55636;51.108;13.622;2023-03-31T02:18:33;99357.06;;;10.73;55.63
68654;BME280;55636;51.108;13.622;2023-03-31T02:19:39;99360.91;;;10.72;55.64
68654;BME280;55636;51.108;13.622;2023-03-31T02:20:47;99362.06;;;10.71;55.66
68654;BME280;55636;51.108;13.622;2023-03-31T02:21:51;99356.53;;;10.71;55.86
68654;BME280;55636;51.108;13.622;2023-03-31T02:22:56;99354.03;;;10.69;55.73
68654;BME280;55636;51.108;13.622;2023-03-31T02:24:01;99359.56;;;10.69;55.87
68654;BME280;55636;51.108;13.622;2023-03-31T02:25:09;99349.63;;;10.68;55.85
68654;BME280;55636;51.108;13.622;2023-03-31T02:26:23;99349.63;;;10.68;55.89
68654;BME280;55636;51.108;13.622;2023-03-31T02:27:32;99344.38;;;10.67;55.89
68654;BME280;55636;51.108;13.622;2023-03-31T02:28:37;99349.09;;;10.66;55.90
68654;BME280;55636;51.108;13.622;2023-03-31T02:29:40;99341.91;;;10.65;55.92
68654;BME280;55636;51.108;13.622;2023-03-31T02:30:57;99343.84;;;10.65;55.97
68654;BME280;55636;51.108;13.622;2023-03-31T02:32:12;99344.97;;;10.64;55.88
68654;BME280;55636;51.108;13.622;2023-03-31T02:33:17;99342.19;;;10.64;55.73
68654;BME280;55636;51.108;13.622;2023-03-31T02:34:20;99339.44;;;10.64;55.75
68654;BME280;55636;51.108;13.622;2023-03-31T02:35:22;99342.50;;;10.62;55.59
68654;BME280;55636;51.108;13.622;2023-03-31T02:36:26;99340.03;;;10.61;55.89
68654;BME280;55636;51.108;13.622;2023-03-31T02:37:29;99344.69;;;10.60;55.67
68654;BME280;55636;51.108;13.622;2023-03-31T02:38:37;99345.00;;;10.59;55.70
68654;BME280;55636;51.108;13.622;2023-03-31T02:39:42;99341.41;;;10.58;55.79
68654;BME280;55636;51.108;13.622;2023-03-31T02:40:46;99338.09;;;10.56;55.74
68654;BME280;55636;51.108;13.622;2023-03-31T02:41:49;99337.28;;;10.56;55.76
68654;BME280;55636;51.108;13.622;2023-03-31T02:42:53;99333.97;;;10.53;55.92
68654;BME280;55636;51.108;13.622;2023-03-31T02:43:56;99336.75;;;10.53;55.94
68654;BME280;55636;51.108;13.622;2023-03-31T02:45:06;99335.09;;;10.52;55.96
68654;BME280;55636;51.108;13.622;2023-03-31T02:46:28;99331.78;;;10.50;55.89
68654;BME280;55636;51.108;13.622;2023-03-31T02:47:34;99333.72;;;10.50;55.87
68654;BME280;55636;51.108;13.622;2023-03-31T02:48:41;99332.09;;;10.49;56.04
68654;BME280;55636;51.108;13.622;2023-03-31T02:49:49;99330.72;;;10.46;56.03
68654;BME280;55636;51.108;13.622;2023-03-31T02:52:39;99324.94;;;10.43;56.12
68654;BME280;55636;51.108;13.622;2023-03-31T02:54:09;99325.22;;;10.41;55.95
68654;BME280;55636;51.108;13.622;2023-03-31T02:57:41;99326.06;;;10.36;56.14
68654;BME280;55636;51.108;13.622;2023-03-31T02:59:16;99324.69;;;10.34;56.22
68654;BME280;55636;51.108;13.622;2023-03-31T03:00:49;99325.81;;;10.33;56.06
68654;BME280;55636;51.108;13.622;2023-03-31T03:03:22;99321.69;;;10.25;56.32
68654;BME280;55636;51.108;13.622;2023-03-31T03:04:48;99313.72;;;10.24;56.30
68654;BME280;55636;51.108;13.622;2023-03-31T03:08:04;99312.91;;;10.18;56.12
68654;BME280;55636;51.108;13.622;2023-03-31T03:11:07;99311.53;;;10.15;56.34
68654;BME280;55636;51.108;13.622;2023-03-31T03:12:24;99313.72;;;10.13;56.35
68654;BME280;55636;51.108;13.622;2023-03-31T03:13:45;99307.69;;;10.11;56.56
68654;BME280;55636;51.108;13.622;2023-03-31T03:14:56;99306.03;;;10.10;56.56
68654;BME280;55636;51.108;13.622;2023-03-31T03:16:13;99305.47;;;10.08;56.63
68654;BME280;55636;51.108;13.622;2023-03-31T03:17:54;99303.00;;;10.07;56.83
68654;BME280;55636;51.108;13.622;2023-03-31T03:19:02;99315.97;;;10.06;56.79
68654;BME280;55636;51.108;13.622;2023-03-31T03:20:06;99308.81;;;10.05;56.79
68654;BME280;55636;51.108;13.622;2023-03-31T03:21:10;99305.22;;;10.04;56.88
68654;BME280;55636;51.108;13.622;2023-03-31T03:22:12;99305.50;;;10.03;56.71
68654;BME280;55636;51.108;13.622;2023-03-31T03:23:15;99306.63;;;10.02;56.94
68654;BME280;55636;51.108;13.622;2023-03-31T03:24:18;99301.34;;;10.00;56.97
68654;BME280;55636;51.108;13.622;2023-03-31T03:25:20;99300.25;;;10.01;56.80
68654;BME280;55636;51.108;13.622;2023-03-31T03:26:22;99300.56;;;10.00;56.86
68654;BME280;55636;51.108;13.622;2023-03-31T03:27:25;99295.03;;;10.00;57.01
68654;BME280;55636;51.108;13.622;2023-03-31T03:28:27;99290.31;;;10.00;57.04
68654;BME280;55636;51.108;13.622;2023-03-31T03:29:29;99293.09;;;10.00;57.04
68654;BME280;55636;51.108;13.622;2023-03-31T03:30:32;99293.94;;;10.01;56.98
68654;BME280;55636;51.108;13.622;2023-03-31T03:31:36;99293.94;;;10.01;57.01
68654;BME280;55636;51.108;13.622;2023-03-31T03:32:38;99294.22;;;9.99;57.15
68654;BME280;55636;51.108;13.622;2023-03-31T03:33:42;99290.63;;;9.99;57.14
68654;BME280;55636;51.108;13.622;2023-03-31T03:34:44;99286.75;;;10.00;57.04
68654;BME280;55636;51.108;13.622;2023-03-31T03:35:47;99288.41;;;10.01;57.03
68654;BME280;55636;51.108;13.622;2023-03-31T03:36:50;99287.31;;;10.02;56.94
68654;BME280;55636;51.108;13.622;2023-03-31T03:37:53;99288.41;;;10.01;56.97
68654;BME280;55636;51.108;13.622;2023-03-31T03:38:55;99290.06;;;10.02;57.08
68654;BME280;55636;51.108;13.622;2023-03-31T03:39:57;99287.31;;;10.02;57.23
68654;BME280;55636;51.108;13.622;2023-03-31T03:41:00;99281.78;;;10.02;56.95
68654;BME280;55636;51.108;13.622;2023-03-31T03:42:02;99290.88;;;10.02;57.29
68654;BME280;55636;51.108;13.622;2023-03-31T03:43:05;99285.06;;;10.04;57.22
68654;BME280;55636;51.108;13.622;2023-03-31T03:44:07;99280.66;;;10.03;57.22
68654;BME280;55636;51.108;13.622;2023-03-31T03:45:09;99283.16;;;10.04;57.03
68654;BME280;55636;51.108;13.622;2023-03-31T03:46:12;99281.22;;;10.05;57.08
68654;BME280;55636;51.108;13.622;2023-03-31T03:47:14;99278.44;;;10.05;57.04
68654;BME280;55636;51.108;13.622;2023-03-31T03:48:17;99281.78;;;10.07;57.10
68654;BME280;55636;51.108;13.622;2023-03-31T03:49:22;99277.34;;;10.06;57.24
68654;BME280;55636;51.108;13.622;2023-03-31T03:50:24;99274.03;;;10.04;57.19
68654;BME280;55636;51.108;13.622;2023-03-31T03:51:26;99272.13;;;10.04;57.33
68654;BME280;55636;51.108;13.622;2023-03-31T03:52:28;99271.84;;;10.06;57.10
68654;BME280;55636;51.108;13.622;2023-03-31T03:53:31;99269.06;;;10.06;57.11
68654;BME280;55636;51.108;13.622;2023-03-31T03:54:33;99267.13;;;10.07;57.19
68654;BME280;55636;51.108;13.622;2023-03-31T03:55:35;99264.09;;;10.08;56.98
68654;BME280;55636;51.108;13.622;2023-03-31T03:56:38;99258.84;;;10.07;57.07
68654;BME280;55636;51.108;13.622;2023-03-31T03:57:40;99264.09;;;10.08;57.19
68654;BME280;55636;51.108;13.622;2023-03-31T03:58:47;99256.66;;;10.09;57.24
68654;BME280;55636;51.108;13.622;2023-03-31T03:59:49;99262.16;;;10.09;57.24
68654;BME280;55636;51.108;13.622;2023-03-31T04:00:52;99256.66;;;10.09;57.21
68654;BME280;55636;51.108;13.622;2023-03-31T04:01:54;99254.69;;;10.09;57.24
68654;BME280;55636;51.108;13.622;2023-03-31T04:02:56;99257.47;;;10.09;57.31
68654;BME280;55636;51.108;13.622;2023-03-31T04:03:59;99255.53;;;10.10;57.27
68654;BME280;55636;51.108;13.622;2023-03-31T04:05:03;99252.78;;;10.10;57.34
68654;BME280;55636;51.108;13.622;2023-03-31T04:06:09;99254.41;;;10.11;57.30
68654;BME280;55636;51.108;13.622;2023-03-31T04:07:12;99248.88;;;10.11;57.50
68654;BME280;55636;51.108;13.622;2023-03-31T04:08:16;99246.13;;;10.11;57.32
68654;BME280;55636;51.108;13.622;2023-03-31T04:09:19;99254.13;;;10.12;57.32
68654;BME280;55636;51.108;13.622;2023-03-31T04:10:21;99254.13;;;10.12;57.23
68654;BME280;55636;51.108;13.622;2023-03-31T04:11:24;99247.78;;;10.12;57.21
68654;BME280;55636;51.108;13.622;2023-03-31T04:12:28;99245.84;;;10.12;57.45
68654;BME280;55636;51.108;13.622;2023-03-31T04:13:30;99236.47;;;10.13;57.50
68654;BME280;55636;51.108;13.622;2023-03-31T04:14:32;99238.41;;;10.13;57.42
68654;BME280;55636;51.108;13.622;2023-03-31T04:15:35;99232.88;;;10.13;57.33
68654;BME280;55636;51.108;13.622;2023-03-31T04:16:37;99233.69;;;10.13;57.37
68654;BME280;55636;51.108;13.622;2023-03-31T04:17:41;99235.66;;;10.13;57.40
68654;BME280;55636;51.108;13.622;2023-03-31T04:18:56;99232.03;;;10.12;57.32
68654;BME280;55636;51.108;13.622;2023-03-31T04:20:02;99240.31;;;10.12;57.40
68654;BME280;55636;51.108;13.622;2023-03-31T04:21:12;99236.47;;;10.13;57.31
68654;BME280;55636;51.108;13.622;2023-03-31T04:22:16;99233.69;;;10.13;57.28
68654;BME280;55636;51.108;13.622;2023-03-31T04:23:21;99235.34;;;10.14;57.26
68654;BME280;55636;51.108;13.622;2023-03-31T04:24:27;99233.69;;;10.13;57.26
68654;BME280;55636;51.108;13.622;2023-03-31T04:25:34;99233.69;;;10.13;57.33
68654;BME280;55636;51.108;13.622;2023-03-31T04:26:39;99235.34;;;10.14;57.26
68654;BME280;55636;51.108;13.622;2023-03-31T04:27:46;99232.88;;;10.13;57.22
68654;BME280;55636;51.108;13.622;2023-03-31T04:28:56;99232.03;;;10.12;57.22
68654;BME280;55636;51.108;13.622;2023-03-31T04:30:01;99233.69;;;10.13;57.20
68654;BME280;55636;51.108;13.622;2023-03-31T04:31:04;99224.59;;;10.13;57.31
68654;BME280;55636;51.108;13.622;2023-03-31T04:32:10;99222.97;;;10.12;57.33
68654;BME280;55636;51.108;13.622;2023-03-31T04:33:16;99222.13;;;10.11;57.28
68654;BME280;55636;51.108;13.622;2023-03-31T04:34:18;99223.75;;;10.12;57.14
68654;BME280;55636;51.108;13.622;2023-03-31T04:35:26;99213.56;;;10.13;57.35
68654;BME280;55636;51.108;13.622;2023-03-31T04:36:28;99221.00;;;10.12;57.30
68654;BME280;55636;51.108;13.622;2023-03-31T04:37:32;99213.56;;;10.13;57.20
68654;BME280;55636;51.108;13.622;2023-03-31T04:38:35;99213.56;;;10.13;57.30
68654;BME280;55636;51.108;13.622;2023-03-31T04:39:38;99216.34;;;10.13;57.28
68654;BME280;55636;51.108;13.622;2023-03-31T04:40:41;99214.38;;;10.13;57.30
68654;BME280;55636;51.108;13.622;2023-03-31T04:41:44;99216.34;;;10.13;57.26
68654;BME280;55636;51.108;13.622;2023-03-31T04:42:46;99209.97;;;10.12;57.46
68654;BME280;55636;51.108;13.622;2023-03-31T04:43:49;99212.47;;;10.14;57.41
68654;BME280;55636;51.108;13.622;2023-03-31T04:44:51;99209.16;;;10.12;57.49
68654;BME280;55636;51.108;13.622;2023-03-31T04:45:53;99212.72;;;10.12;57.29
68654;BME280;55636;51.108;13.622;2023-03-31T04:46:56;99202.53;;;10.13;57.31
68654;BME280;55636;51.108;13.622;2023-03-31T04:48:01;99205.00;;;10.14;57.34
68654;BME280;55636;51.108;13.622;2023-03-31T04:49:03;99209.41;;;10.15;57.39
68654;BME280;55636;51.108;13.622;2023-03-31T04:50:07;99205.81;;;10.15;57.44
68654;BME280;55636;51.108;13.622;2023-03-31T04:51:14;99205.81;;;10.15;57.52
68654;BME280;55636;51.108;13.622;2023-03-31T04:52:18;99200.59;;;10.13;57.53
68654;BME280;55636;51.108;13.622;2023-03-31T04:53:21;99205.81;;;10.15;57.71
68654;BME280;55636;51.108;13.622;2023-03-31T04:54:24;99200.28;;;10.15;57.63
68654;BME280;55636;51.108;13.622;2023-03-31T04:55:27;99203.06;;;10.15;57.59
68654;BME280;55636;51.108;13.622;2023-03-31T04:56:29;99199.47;;;10.14;57.56
68654;BME280;55636;51.108;13.622;2023-03-31T04:57:32;99195.63;;;10.15;57.49
68654;BME280;55636;51.108;13.622;2023-03-31T04:58:34;99195.63;;;10.15;57.68
68654;BME280;55636;51.108;13.622;2023-03-31T04:59:36;99192.03;;;10.15;57.66
68654;BME280;55636;51.108;13.622;2023-03-31T05:00:39;99190.09;;;10.15;57.66
68654;BME280;55636;51.108;13.622;2023-03-31T05:01:42;99190.09;;;10.15;57.43
68654;BME280;55636;51.108;13.622;2023-03-31T05:02:46;99188.16;;;10.16;57.55
68654;BME280;55636;51.108;13.622;2023-03-31T05:03:49;99185.41;;;10.16;57.56
68654;BME280;55636;51.108;13.622;2023-03-31T05:04:51;99184.59;;;10.15;57.81
68654;BME280;55636;51.108;13.622;2023-03-31T05:05:54;99183.50;;;10.16;57.42
68654;BME280;55636;51.108;13.622;2023-03-31T05:06:56;99177.13;;;10.16;57.61
68654;BME280;55636;51.108;13.622;2023-03-31T05:07:58;99184.59;;;10.15;57.50
68654;BME280;55636;51.108;13.622;2023-03-31T05:09:01;99167.75;;;10.17;57.66
68654;BME280;55636;51.108;13.622;2023-03-31T05:10:04;99176.03;;;10.17;57.75
68654;BME280;55636;51.108;13.622;2023-03-31T05:11:07;99169.94;;;10.15;57.65
68654;BME280;55636;51.108;13.622;2023-03-31T05:12:10;99171.59;;;10.16;57.65
68654;BME280;55636;51.108;13.622;2023-03-31T05:13:12;99168.84;;;10.16;57.54
68654;BME280;55636;51.108;13.622;2023-03-31T05:14:14;99169.13;;;10.14;57.52
68654;BME280;55636;51.108;13.622;2023-03-31T05:15:17;99162.50;;;10.15;57.78
68654;BME280;55636;51.108;13.622;2023-03-31T05:16:19;99164.19;;;10.16;57.76
68654;BME280;55636;51.108;13.622;2023-03-31T05:17:22;99160.84;;;10.14;57.66
68654;BME280;55636;51.108;13.622;2023-03-31T05:18:24;99158.91;;;10.15;57.55
68654;BME280;55636;51.108;13.622;2023-03-31T05:19:27;99161.97;;;10.13;57.58
68654;BME280;55636;51.108;13.622;2023-03-31T05:20:29;99162.50;;;10.15;57.57
68654;BME280;55636;51.108;13.622;2023-03-31T05:21:32;99148.16;;;10.13;57.50
68654;BME280;55636;51.108;13.622;2023-03-31T05:22:36;99155.34;;;10.14;57.55
68654;BME280;55636;51.108;13.622;2023-03-31T05:23:39;99154.22;;;10.15;57.50
68654;BME280;55636;51.108;13.622;2023-03-31T05:24:42;99155.34;;;10.14;57.51
68654;BME280;55636;51.108;13.622;2023-03-31T05:25:46;99152.56;;;10.14;57.37
68654;BME280;55636;51.108;13.622;2023-03-31T05:26:48;99145.94;;;10.15;57.40
68654;BME280;55636;51.108;13.622;2023-03-31T05:27:54;99142.34;;;10.15;57.41
68654;BME280;55636;51.108;13.622;2023-03-31T05:28:57;99137.69;;;10.15;57.41
68654;BME280;55636;51.108;13.622;2023-03-31T05:30:01;99144.88;;;10.16;57.46
68654;BME280;55636;51.108;13.622;2023-03-31T05:31:04;99129.41;;;10.15;57.38
68654;BME280;55636;51.108;13.622;2023-03-31T05:32:07;99132.16;;;10.15;57.34
68654;BME280;55636;51.108;13.622;2023-03-31T05:33:10;99124.44;;;10.17;57.48
68654;BME280;55636;51.108;13.622;2023-03-31T05:34:13;99122.50;;;10.18;57.54
68654;BME280;55636;51.108;13.622;2023-03-31T05:35:16;99120.03;;;10.16;57.41
68654;BME280;55636;51.108;13.622;2023-03-31T05:36:18;99118.63;;;10.19;57.51
68654;BME280;55636;51.108;13.622;2023-03-31T05:37:25;99123.31;;;10.18;57.59
68654;BME280;55636;51.108;13.622;2023-03-31T05:38:27;99115.88;;;10.19;57.55
68654;BME280;55636;51.108;13.622;2023-03-31T05:39:30;99113.94;;;10.19;57.46
68654;BME280;55636;51.108;13.622;2023-03-31T05:40:34;99113.13;;;10.19;57.39
68654;BME280;55636;51.108;13.622;2023-03-31T05:41:36;99112.81;;;10.20;57.53
68654;BME280;55636;51.108;13.622;2023-03-31T05:42:38;99112.53;;;10.22;57.56
68654;BME280;55636;51.108;13.622;2023-03-31T05:43:41;99113.34;;;10.23;57.45
68654;BME280;55636;51.108;13.622;2023-03-31T05:44:44;99111.94;;;10.25;57.59
68654;BME280;55636;51.108;13.622;2023-03-31T05:45:48;99108.09;;;10.26;57.56
68654;BME280;55636;51.108;13.622;2023-03-31T05:46:52;99103.41;;;10.27;57.65
68654;BME280;55636;51.108;13.622;2023-03-31T05:47:55;99092.88;;;10.29;57.53
68654;BME280;55636;51.108;13.622;2023-03-31T05:48:57;99085.97;;;10.31;57.79
68654;BME280;55636;51.108;13.622;2023-03-31T05:50:00;99092.84;;;10.34;57.75
68654;BME280;55636;51.108;13.622;2023-03-31T05:51:02;99089.78;;;10.35;57.83
68654;BME280;55636;51.108;13.622;2023-03-31T05:52:06;99085.09;;;10.36;58.06
68654;BME280;55636;51.108;13.622;2023-03-31T05:53:09;99079.00;;;10.39;58.06
68654;BME280;55636;51.108;13.622;2023-03-31T05:54:11;99078.41;;;10.42;58.13
68654;BME280;55636;51.108;13.622;2023-03-31T05:55:15;99075.38;;;10.44;58.11
68654;BME280;55636;51.108;13.622;2023-03-31T05:56:18;99075.38;;;10.44;58.23
68654;BME280;55636;51.108;13.622;2023-03-31T05:57:20;99073.97;;;10.46;58.28
68654;BME280;55636;51.108;13.622;2023-03-31T05:58:22;99071.72;;;10.48;58.14
68654;BME280;55636;51.108;13.622;2023-03-31T05:59:25;99072.25;;;10.50;58.19
68654;BME280;55636;51.108;13.622;2023-03-31T06:00:28;99062.56;;;10.53;58.26
68654;BME280;55636;51.108;13.622;2023-03-31T06:01:30;99061.16;;;10.56;58.17
68654;BME280;55636;51.108;13.622;2023-03-31T06:02:33;99056.16;;;10.58;58.20
68654;BME280;55636;51.108;13.622;2023-03-31T06:03:38;99055.88;;;10.59;58.45
68654;BME280;55636;51.108;13.622;2023-03-31T06:04:42;99051.44;;;10.63;58.16
68654;BME280;55636;51.108;13.622;2023-03-31T06:05:49;99055.25;;;10.67;58.34
68654;BME280;55636;51.108;13.622;2023-03-31T06:06:55;99051.06;;;10.70;58.25
68654;BME280;55636;51.108;13.622;2023-03-31T06:07:59;99052.94;;;10.75;58.28
68654;BME280;55636;51.108;13.622;2023-03-31T06:09:01;99047.94;;;10.77;58.38
68654;BME280;55636;51.108;13.622;2023-03-31T06:10:04;99048.19;;;10.80;58.40
68654;BME280;55636;51.108;13.622;2023-03-31T06:11:12;99052.81;;;10.85;58.53
68654;BME280;55636;51.108;13.622;2023-03-31T06:12:14;99058.28;;;10.90;58.42
68654;BME280;55636;51.108;13.622;2023-03-31T06:13:18;99053.81;;;10.94;58.41
68654;BME280;55636;51.108;13.622;2023-03-31T06:14:21;99049.88;;;11.00;58.29
68654;BME280;55636;51.108;13.622;2023-03-31T06:15:24;99046.25;;;11.05;58.14
68654;BME280;55636;51.108;13.622;2023-03-31T06:16:26;99043.41;;;11.10;58.15
68654;BME280;55636;51.108;13.622;2023-03-31T06:17:30;99038.94;;;11.14;57.99
68654;BME280;55636;51.108;13.622;2023-03-31T06:18:33;99038.03;;;11.19;57.74